sensor_id;sensor_type;location;lat;lon;timestamp;pressure;altitude;pressure_sealevel;temperature;humidity
34297;BME280;20564;42.902;25.336;2023-04-06T00:01:47;96908.94;;;2.96;89.42
34297;BME280;20564;42.902;25.336;2023-04-06T00:04:20;96898.22;;;2.87;89.69
34297;BME280;20564;42.902;25.336;2023-04-06T00:06:47;96901.56;;;2.89;88.89
34297;BME280;20564;42.902;25.336;2023-04-06T00:09:30;96902.41;;;2.90;89.54
34297;BME280;20564;42.902;25.336;2023-04-06T00:12:01;96894.06;;;2.85;90.69
34297;BME280;20564;42.902;25.336;2023-04-06T00:14:31;96895.63;;;2.87;90.80
34297;BME280;20564;42.902;25.336;2023-04-06T00:17:11;96894.34;;;2.80;90.57
34297;BME280;20564;42.902;25.336;2023-04-06T00:19:43;96896.97;;;2.80;91.80
34297;BME280;20564;42.902;25.336;2023-04-06T00:22:23;96899.66;;;2.79;92.50
34297;BME280;20564;42.902;25.336;2023-04-06T00:24:53;96888.72;;;2.74;91.83
34297;BME280;20564;42.902;25.336;2023-04-06T00:27:29;96888.38;;;2.65;93.14
34297;BME280;20564;42.902;25.336;2023-04-06T00:29:57;96885.97;;;2.62;94.23
34297;BME280;20564;42.902;25.336;2023-04-06T00:32:25;96881.19;;;2.56;93.99
34297;BME280;20564;42.902;25.336;2023-04-06T00:34:56;96871.19;;;2.50;95.77
34297;BME280;20564;42.902;25.336;2023-04-06T00:37:33;96869.53;;;2.49;96.13
34297;BME280;20564;42.902;25.336;2023-04-06T00:40:06;96862.13;;;2.43;96.12
34297;BME280;20564;42.902;25.336;2023-04-06T00:42:36;96862.13;;;2.43;96.07
34297;BME280;20564;42.902;25.336;2023-04-06T00:45:04;96858.78;;;2.41;96.08
34297;BME280;20564;42.902;25.336;2023-04-06T00:47:48;96856.28;;;2.39;96.17
34297;BME280;20564;42.902;25.336;2023-04-06T00:50:45;96851.66;;;2.30;96.91
34297;BME280;20564;42.902;25.336;2023-04-06T00:53:48;96853.09;;;2.22;96.34
34297;BME280;20564;42.902;25.336;2023-04-06T01:00:27;96859.78;;;2.11;97.11
34297;BME280;20564;42.902;25.336;2023-04-06T01:03:11;96850.31;;;1.98;98.09
34297;BME280;20564;42.902;25.336;2023-04-06T01:12:23;96844.47;;;1.80;99.62
34297;BME280;20564;42.902;25.336;2023-04-06T01:15:13;96840.41;;;1.76;99.56
34297;BME280;20564;42.902;25.336;2023-04-06T01:17:45;96839.47;;;1.77;98.01
34297;BME280;20564;42.902;25.336;2023-04-06T01:20:25;96836.59;;;1.67;97.33
34297;BME280;20564;42.902;25.336;2023-04-06T01:23:02;96837.44;;;1.67;98.16
34297;BME280;20564;42.902;25.336;2023-04-06T01:25:52;96829.28;;;1.59;98.68
34297;BME280;20564;42.902;25.336;2023-04-06T01:28:31;96831.53;;;1.51;100.00
34297;BME280;20564;42.902;25.336;2023-04-06T01:31:15;96824.13;;;1.45;99.84
34297;BME280;20564;42.902;25.336;2023-04-06T01:34:06;96842.63;;;1.39;100.00
34297;BME280;20564;42.902;25.336;2023-04-06T01:36:46;96835.25;;;1.33;100.00
34297;BME280;20564;42.902;25.336;2023-04-06T01:39:26;96829.88;;;1.36;100.00
34297;BME280;20564;42.902;25.336;2023-04-06T01:41:58;96810.59;;;1.40;100.00
34297;BME280;20564;42.902;25.336;2023-04-06T01:44:29;96824.75;;;1.34;100.00
34297;BME280;20564;42.902;25.336;2023-04-06T01:47:03;96819.50;;;1.36;100.00
34297;BME280;20564;42.902;25.336;2023-04-06T01:49:34;96819.97;;;1.28;100.00
34297;BME280;20564;42.902;25.336;2023-04-06T01:52:21;96823.38;;;1.29;100.00
34297;BME280;20564;42.902;25.336;2023-04-06T01:55:40;96817.09;;;1.33;100.00
34297;BME280;20564;42.902;25.336;2023-04-06T01:58:45;96818.09;;;1.30;100.00
34297;BME280;20564;42.902;25.336;2023-04-06T02:01:36;96816.44;;;1.29;100.00
34297;BME280;20564;42.902;25.336;2023-04-06T02:04:12;96822.63;;;1.27;100.00
34297;BME280;20564;42.902;25.336;2023-04-06T02:07:07;96807.06;;;1.12;100.00
34297;BME280;20564;42.902;25.336;2023-04-06T02:10:01;96812.63;;;1.06;100.00
34297;BME280;20564;42.902;25.336;2023-04-06T02:16:11;96799.84;;;1.03;100.00
34297;BME280;20564;42.902;25.336;2023-04-06T02:18:51;96790.59;;;0.99;100.00
34297;BME280;20564;42.902;25.336;2023-04-06T02:21:38;96798.91;;;0.90;100.00
34297;BME280;20564;42.902;25.336;2023-04-06T02:24:19;96798.56;;;0.96;100.00
34297;BME280;20564;42.902;25.336;2023-04-06T02:26:56;96792.97;;;1.02;100.00
34297;BME280;20564;42.902;25.336;2023-04-06T02:29:42;96795.03;;;0.97;100.00
34297;BME280;20564;42.902;25.336;2023-04-06T02:35:30;96809.81;;;0.95;100.00
34297;BME280;20564;42.902;25.336;2023-04-06T02:38:21;96806.16;;;0.99;100.00
34297;BME280;20564;42.902;25.336;2023-04-06T02:41:18;96804.22;;;1.03;100.00
34297;BME280;20564;42.902;25.336;2023-04-06T02:43:58;96802.28;;;1.06;100.00
34297;BME280;20564;42.902;25.336;2023-04-06T02:46:37;96800.13;;;1.13;100.00
34297;BME280;20564;42.902;25.336;2023-04-06T02:49:08;96805.22;;;1.14;100.00
34297;BME280;20564;42.902;25.336;2023-04-06T02:51:49;96807.66;;;1.17;100.00
34297;BME280;20564;42.902;25.336;2023-04-06T02:54:19;96798.56;;;1.25;100.00
34297;BME280;20564;42.902;25.336;2023-04-06T02:56:52;96804.66;;;1.38;100.00
34297;BME280;20564;42.902;25.336;2023-04-06T02:59:19;96800.13;;;1.41;100.00
34297;BME280;20564;42.902;25.336;2023-04-06T03:01:47;96803.00;;;1.37;100.00
34297;BME280;20564;42.902;25.336;2023-04-06T03:04:17;96809.66;;;1.41;100.00
34297;BME280;20564;42.902;25.336;2023-04-06T03:06:54;96796.34;;;1.33;100.00
34297;BME280;20564;42.902;25.336;2023-04-06T03:09:40;96803.84;;;1.37;100.00
34297;BME280;20564;42.902;25.336;2023-04-06T03:12:38;96798.19;;;1.31;100.00
34297;BME280;20564;42.902;25.336;2023-04-06T03:15:16;96797.19;;;1.33;100.00
34297;BME280;20564;42.902;25.336;2023-04-06T03:18:02;96794.13;;;1.41;100.00
34297;BME280;20564;42.902;25.336;2023-04-06T03:20:50;96804.31;;;1.44;100.00
34297;BME280;20564;42.902;25.336;2023-04-06T03:24:02;96798.28;;;1.43;100.00
34297;BME280;20564;42.902;25.336;2023-04-06T03:26:33;96806.97;;;1.42;100.00
34297;BME280;20564;42.902;25.336;2023-04-06T03:32:55;96807.44;;;1.49;100.00
34297;BME280;20564;42.902;25.336;2023-04-06T03:35:22;96810.03;;;1.49;100.00
34297;BME280;20564;42.902;25.336;2023-04-06T03:37:49;96804.78;;;1.51;100.00
34297;BME280;20564;42.902;25.336;2023-04-06T03:40:16;96805.31;;;1.56;100.00
34297;BME280;20564;42.902;25.336;2023-04-06T03:42:43;96799.66;;;1.63;100.00
34297;BME280;20564;42.902;25.336;2023-04-06T03:45:10;96803.00;;;1.65;100.00
34297;BME280;20564;42.902;25.336;2023-04-06T03:47:37;96803.72;;;1.67;100.00
34297;BME280;20564;42.902;25.336;2023-04-06T03:50:27;96813.19;;;1.54;100.00
34297;BME280;20564;42.902;25.336;2023-04-06T03:52:57;96805.41;;;1.54;100.00
34297;BME280;20564;42.902;25.336;2023-04-06T03:55:35;96810.19;;;1.60;100.00
34297;BME280;20564;42.902;25.336;2023-04-06T03:58:03;96805.84;;;1.61;100.00
34297;BME280;20564;42.902;25.336;2023-04-06T04:00:29;96809.47;;;1.73;100.00
34297;BME280;20564;42.902;25.336;2023-04-06T04:02:57;96810.03;;;1.63;100.00
34297;BME280;20564;42.902;25.336;2023-04-06T04:05:24;96810.59;;;1.54;100.00
34297;BME280;20564;42.902;25.336;2023-04-06T04:07:52;96804.59;;;1.54;100.00
34297;BME280;20564;42.902;25.336;2023-04-06T04:10:22;96802.19;;;1.51;100.00
34297;BME280;20564;42.902;25.336;2023-04-06T04:12:49;96802.19;;;1.51;100.00
34297;BME280;20564;42.902;25.336;2023-04-06T04:15:17;96800.41;;;1.51;100.00
34297;BME280;20564;42.902;25.336;2023-04-06T04:17:44;96811.44;;;1.55;100.00
34297;BME280;20564;42.902;25.336;2023-04-06T04:20:16;96808.72;;;1.56;100.00
34297;BME280;20564;42.902;25.336;2023-04-06T04:22:43;96809.38;;;1.60;100.00
34297;BME280;20564;42.902;25.336;2023-04-06T04:25:10;96813.19;;;1.68;100.00
34297;BME280;20564;42.902;25.336;2023-04-06T04:27:37;96805.28;;;1.70;100.00
34297;BME280;20564;42.902;25.336;2023-04-06T04:30:05;96807.59;;;1.75;100.00
34297;BME280;20564;42.902;25.336;2023-04-06T04:32:32;96804.72;;;1.79;100.00
34297;BME280;20564;42.902;25.336;2023-04-06T04:34:59;96808.88;;;1.82;100.00
34297;BME280;20564;42.902;25.336;2023-04-06T04:37:32;96811.94;;;1.88;100.00
34297;BME280;20564;42.902;25.336;2023-04-06T04:40:01;96796.25;;;1.90;100.00
34297;BME280;20564;42.902;25.336;2023-04-06T04:42:31;96796.06;;;1.93;100.00
34297;BME280;20564;42.902;25.336;2023-04-06T04:45:03;96792.06;;;2.02;100.00
34297;BME280;20564;42.902;25.336;2023-04-06T04:50:15;96794.56;;;2.03;100.00
34297;BME280;20564;42.902;25.336;2023-04-06T04:52:42;96798.81;;;2.04;100.00
34297;BME280;20564;42.902;25.336;2023-04-06T04:55:09;96796.78;;;2.09;100.00
34297;BME280;20564;42.902;25.336;2023-04-06T04:57:39;96797.69;;;2.08;100.00
34297;BME280;20564;42.902;25.336;2023-04-06T05:00:10;96797.69;;;2.08;100.00
34297;BME280;20564;42.902;25.336;2023-04-06T05:02:38;96803.44;;;2.13;100.00
34297;BME280;20564;42.902;25.336;2023-04-06T05:05:07;96804.91;;;2.17;100.00
34297;BME280;20564;42.902;25.336;2023-04-06T05:07:40;96803.44;;;2.13;100.00
34297;BME280;20564;42.902;25.336;2023-04-06T05:10:09;96805.19;;;2.13;100.00
34297;BME280;20564;42.902;25.336;2023-04-06T05:12:37;96805.28;;;2.11;100.00
34297;BME280;20564;42.902;25.336;2023-04-06T05:15:04;96811.19;;;2.28;100.00
34297;BME280;20564;42.902;25.336;2023-04-06T05:17:31;96810.56;;;2.37;100.00
34297;BME280;20564;42.902;25.336;2023-04-06T05:19:58;96804.84;;;2.32;100.00
34297;BME280;20564;42.902;25.336;2023-04-06T05:22:26;96803.72;;;2.36;100.00
34297;BME280;20564;42.902;25.336;2023-04-06T05:24:52;96796.06;;;2.47;100.00
34297;BME280;20564;42.902;25.336;2023-04-06T05:27:20;96797.72;;;2.48;100.00
34297;BME280;20564;42.902;25.336;2023-04-06T05:29:47;96802.19;;;2.46;99.10
34297;BME280;20564;42.902;25.336;2023-04-06T05:32:14;96802.69;;;2.38;98.99
34297;BME280;20564;42.902;25.336;2023-04-06T05:34:41;96804.38;;;2.52;100.00
34297;BME280;20564;42.902;25.336;2023-04-06T05:37:10;96795.03;;;2.62;100.00
34297;BME280;20564;42.902;25.336;2023-04-06T05:39:37;96792.44;;;2.62;96.87
34297;BME280;20564;42.902;25.336;2023-04-06T05:42:05;96792.16;;;2.67;97.95
34297;BME280;20564;42.902;25.336;2023-04-06T05:44:42;96791.31;;;2.66;97.79
34297;BME280;20564;42.902;25.336;2023-04-06T05:47:09;96792.16;;;2.67;98.49
34297;BME280;20564;42.902;25.336;2023-04-06T05:49:39;96784.06;;;2.72;96.47
34297;BME280;20564;42.902;25.336;2023-04-06T05:52:08;96778.03;;;2.71;98.46
34297;BME280;20564;42.902;25.336;2023-04-06T05:54:37;96780.84;;;2.81;96.91
34297;BME280;20564;42.902;25.336;2023-04-06T05:57:03;96781.38;;;2.86;98.36
34297;BME280;20564;42.902;25.336;2023-04-06T05:59:31;96784.09;;;2.97;94.61
34297;BME280;20564;42.902;25.336;2023-04-06T06:01:58;96774.13;;;3.04;94.48
34297;BME280;20564;42.902;25.336;2023-04-06T06:04:27;96778.25;;;3.06;94.33
34297;BME280;20564;42.902;25.336;2023-04-06T06:06:56;96773.50;;;3.00;92.69
34297;BME280;20564;42.902;25.336;2023-04-06T06:09:24;96777.53;;;3.04;93.99
34297;BME280;20564;42.902;25.336;2023-04-06T06:11:52;96773.28;;;3.16;93.89
34297;BME280;20564;42.902;25.336;2023-04-06T06:14:19;96768.47;;;3.23;91.94
34297;BME280;20564;42.902;25.336;2023-04-06T06:16:46;96773.16;;;3.30;90.77
34297;BME280;20564;42.902;25.336;2023-04-06T06:19:13;96764.19;;;3.34;90.14
34297;BME280;20564;42.902;25.336;2023-04-06T06:21:40;96771.06;;;3.48;89.83
34297;BME280;20564;42.902;25.336;2023-04-06T06:24:07;96766.13;;;3.56;87.77
34297;BME280;20564;42.902;25.336;2023-04-06T06:26:35;96761.34;;;3.63;86.86
34297;BME280;20564;42.902;25.336;2023-04-06T06:29:06;96758.19;;;3.71;86.55
34297;BME280;20564;42.902;25.336;2023-04-06T06:31:37;96764.72;;;3.76;84.98
34297;BME280;20564;42.902;25.336;2023-04-06T06:34:04;96766.47;;;3.89;83.87
34297;BME280;20564;42.902;25.336;2023-04-06T06:36:32;96771.47;;;3.92;83.65
34297;BME280;20564;42.902;25.336;2023-04-06T06:39:02;96760.72;;;3.96;84.03
34297;BME280;20564;42.902;25.336;2023-04-06T06:41:30;96765.72;;;3.99;84.53
34297;BME280;20564;42.902;25.336;2023-04-06T06:43:57;96769.97;;;4.00;82.73
34297;BME280;20564;42.902;25.336;2023-04-06T06:46:24;96770.75;;;4.14;82.31
34297;BME280;20564;42.902;25.336;2023-04-06T06:48:52;96769.59;;;4.18;82.50
34297;BME280;20564;42.902;25.336;2023-04-06T06:51:18;96766.31;;;4.27;81.13
34297;BME280;20564;42.902;25.336;2023-04-06T06:53:46;96762.31;;;4.34;81.40
34297;BME280;20564;42.902;25.336;2023-04-06T06:56:13;96763.97;;;4.35;79.93
34297;BME280;20564;42.902;25.336;2023-04-06T06:58:40;96757.75;;;4.49;80.94
34297;BME280;20564;42.902;25.336;2023-04-06T07:01:07;96757.34;;;4.66;80.34
34297;BME280;20564;42.902;25.336;2023-04-06T07:03:35;96759.63;;;4.82;79.44
34297;BME280;20564;42.902;25.336;2023-04-06T07:06:02;96761.09;;;4.97;79.69
34297;BME280;20564;42.902;25.336;2023-04-06T07:08:29;96751.38;;;5.11;78.08
34297;BME280;20564;42.902;25.336;2023-04-06T07:10:56;96747.56;;;5.26;76.36
34297;BME280;20564;42.902;25.336;2023-04-06T07:13:23;96749.84;;;5.42;77.15
34297;BME280;20564;42.902;25.336;2023-04-06T07:15:50;96746.63;;;5.61;76.05
34297;BME280;20564;42.902;25.336;2023-04-06T07:18:18;96754.69;;;5.69;73.96
34297;BME280;20564;42.902;25.336;2023-04-06T07:20:46;96751.44;;;5.88;75.11
34297;BME280;20564;42.902;25.336;2023-04-06T07:23:14;96750.88;;;5.95;72.36
34297;BME280;20564;42.902;25.336;2023-04-06T07:25:41;96755.41;;;5.93;72.19
34297;BME280;20564;42.902;25.336;2023-04-06T07:28:08;96750.38;;;5.90;70.96
34297;BME280;20564;42.902;25.336;2023-04-06T07:30:39;96748.25;;;5.95;71.83
34297;BME280;20564;42.902;25.336;2023-04-06T07:33:09;96752.56;;;5.96;71.50
34297;BME280;20564;42.902;25.336;2023-04-06T07:35:37;96746.72;;;6.04;72.56
34297;BME280;20564;42.902;25.336;2023-04-06T07:38:04;96747.53;;;6.04;71.07
34297;BME280;20564;42.902;25.336;2023-04-06T07:40:31;96753.00;;;6.01;69.53
34297;BME280;20564;42.902;25.336;2023-04-06T07:42:59;96751.41;;;6.10;69.77
34297;BME280;20564;42.902;25.336;2023-04-06T07:45:26;96748.91;;;6.20;69.66
34297;BME280;20564;42.902;25.336;2023-04-06T07:47:53;96749.63;;;6.22;69.02
34297;BME280;20564;42.902;25.336;2023-04-06T07:50:20;96752.47;;;6.19;69.33
34297;BME280;20564;42.902;25.336;2023-04-06T07:52:47;96746.53;;;6.17;68.89
34297;BME280;20564;42.902;25.336;2023-04-06T07:55:14;96747.25;;;6.19;69.37
34297;BME280;20564;42.902;25.336;2023-04-06T07:57:41;96742.81;;;6.31;70.37
34297;BME280;20564;42.902;25.336;2023-04-06T08:00:08;96759.31;;;6.31;69.67
34297;BME280;20564;42.902;25.336;2023-04-06T08:02:36;96749.88;;;6.40;69.69
34297;BME280;20564;42.902;25.336;2023-04-06T08:05:03;96754.00;;;6.53;68.24
34297;BME280;20564;42.902;25.336;2023-04-06T08:07:30;96749.19;;;6.70;68.87
34297;BME280;20564;42.902;25.336;2023-04-06T08:09:57;96741.28;;;6.81;67.67
34297;BME280;20564;42.902;25.336;2023-04-06T08:12:24;96744.38;;;6.96;69.03
34297;BME280;20564;42.902;25.336;2023-04-06T08:14:51;96744.75;;;7.12;67.27
34297;BME280;20564;42.902;25.336;2023-04-06T08:17:18;96739.41;;;7.14;67.18
34297;BME280;20564;42.902;25.336;2023-04-06T08:19:45;96741.22;;;7.23;66.75
34297;BME280;20564;42.902;25.336;2023-04-06T08:22:12;96741.59;;;7.39;65.97
34297;BME280;20564;42.902;25.336;2023-04-06T08:24:39;96738.56;;;7.44;64.97
34297;BME280;20564;42.902;25.336;2023-04-06T08:27:06;96743.28;;;7.50;66.81
34297;BME280;20564;42.902;25.336;2023-04-06T08:29:34;96736.78;;;7.44;65.01
34297;BME280;20564;42.902;25.336;2023-04-06T08:32:00;96732.50;;;7.43;64.49
34297;BME280;20564;42.902;25.336;2023-04-06T08:34:32;96735.38;;;7.40;64.83
34297;BME280;20564;42.902;25.336;2023-04-06T08:36:59;96738.25;;;7.37;64.27
34297;BME280;20564;42.902;25.336;2023-04-06T08:39:39;96744.22;;;7.18;65.27
34297;BME280;20564;42.902;25.336;2023-04-06T08:42:12;96741.47;;;7.20;64.06
34297;BME280;20564;42.902;25.336;2023-04-06T08:44:42;96744.66;;;7.23;64.16
34297;BME280;20564;42.902;25.336;2023-04-06T08:47:09;96741.84;;;7.36;64.32
34297;BME280;20564;42.902;25.336;2023-04-06T08:49:40;96729.47;;;7.48;64.36
34297;BME280;20564;42.902;25.336;2023-04-06T08:52:11;96732.81;;;7.60;64.34
34297;BME280;20564;42.902;25.336;2023-04-06T08:54:39;96734.00;;;7.77;62.87
34297;BME280;20564;42.902;25.336;2023-04-06T08:57:07;96736.47;;;7.78;61.58
34297;BME280;20564;42.902;25.336;2023-04-06T08:59:34;96737.06;;;7.91;61.98
34297;BME280;20564;42.902;25.336;2023-04-06T09:02:03;96733.75;;;7.99;61.74
34297;BME280;20564;42.902;25.336;2023-04-06T09:04:33;96737.34;;;8.08;62.21
34297;BME280;20564;42.902;25.336;2023-04-06T09:07:01;96733.22;;;8.15;60.94
34297;BME280;20564;42.902;25.336;2023-04-06T09:09:28;96724.41;;;8.35;60.85
34297;BME280;20564;42.902;25.336;2023-04-06T09:11:55;96726.66;;;8.50;61.03
34297;BME280;20564;42.902;25.336;2023-04-06T09:14:36;96721.94;;;8.43;59.80
34297;BME280;20564;42.902;25.336;2023-04-06T09:17:07;96719.31;;;8.43;59.01
34297;BME280;20564;42.902;25.336;2023-04-06T09:19:45;96716.00;;;8.51;59.06
34297;BME280;20564;42.902;25.336;2023-04-06T09:22:12;96715.63;;;8.56;58.61
34297;BME280;20564;42.902;25.336;2023-04-06T09:24:46;96708.97;;;8.61;58.15
34297;BME280;20564;42.902;25.336;2023-04-06T09:27:15;96707.59;;;8.67;58.70
34297;BME280;20564;42.902;25.336;2023-04-06T09:29:43;96701.78;;;8.44;58.63
34297;BME280;20564;42.902;25.336;2023-04-06T09:32:11;96690.59;;;8.52;59.36
34297;BME280;20564;42.902;25.336;2023-04-06T09:34:41;96696.81;;;8.60;60.00
34297;BME280;20564;42.902;25.336;2023-04-06T09:37:27;96688.09;;;8.79;58.74
34297;BME280;20564;42.902;25.336;2023-04-06T09:40:02;96690.72;;;8.79;57.77
34297;BME280;20564;42.902;25.336;2023-04-06T09:42:29;96692.09;;;8.83;57.91
34297;BME280;20564;42.902;25.336;2023-04-06T09:44:57;96686.22;;;8.99;56.52
34297;BME280;20564;42.902;25.336;2023-04-06T09:47:24;96683.66;;;9.27;57.79
34297;BME280;20564;42.902;25.336;2023-04-06T09:49:59;96689.75;;;9.27;56.73
34297;BME280;20564;42.902;25.336;2023-04-06T09:52:32;96688.03;;;9.36;57.48
34297;BME280;20564;42.902;25.336;2023-04-06T09:55:03;96679.00;;;9.48;55.77
34297;BME280;20564;42.902;25.336;2023-04-06T09:57:57;96680.53;;;9.51;56.99
34297;BME280;20564;42.902;25.336;2023-04-06T10:00:25;96681.28;;;9.61;55.99
34297;BME280;20564;42.902;25.336;2023-04-06T10:03:18;96666.41;;;9.52;54.36
34297;BME280;20564;42.902;25.336;2023-04-06T10:05:57;96675.56;;;9.48;55.87
34297;BME280;20564;42.902;25.336;2023-04-06T10:08:27;96684.09;;;9.50;55.74
34297;BME280;20564;42.902;25.336;2023-04-06T10:10:58;96679.09;;;9.56;54.80
34297;BME280;20564;42.902;25.336;2023-04-06T10:13:25;96674.88;;;9.73;55.23
34297;BME280;20564;42.902;25.336;2023-04-06T10:15:54;96678.13;;;10.03;55.58
34297;BME280;20564;42.902;25.336;2023-04-06T10:18:21;96672.94;;;10.11;54.45
34297;BME280;20564;42.902;25.336;2023-04-06T10:21:10;96682.00;;;10.26;54.94
34297;BME280;20564;42.902;25.336;2023-04-06T10:23:47;96674.16;;;10.34;52.75
34297;BME280;20564;42.902;25.336;2023-04-06T10:26:16;96673.50;;;10.50;52.80
34297;BME280;20564;42.902;25.336;2023-04-06T10:28:54;96665.25;;;10.71;53.54
34297;BME280;20564;42.902;25.336;2023-04-06T10:31:27;96672.47;;;10.69;52.01
34297;BME280;20564;42.902;25.336;2023-04-06T10:34:02;96671.97;;;10.66;51.52
34297;BME280;20564;42.902;25.336;2023-04-06T10:36:34;96662.22;;;10.84;53.64
34297;BME280;20564;42.902;25.336;2023-04-06T10:39:05;96671.66;;;10.95;51.67
34297;BME280;20564;42.902;25.336;2023-04-06T10:41:41;96656.00;;;10.67;51.58
34297;BME280;20564;42.902;25.336;2023-04-06T10:44:21;96670.31;;;10.65;51.14
34297;BME280;20564;42.902;25.336;2023-04-06T10:46:59;96663.28;;;10.47;50.47
34297;BME280;20564;42.902;25.336;2023-04-06T10:49:30;96658.09;;;10.37;51.82
34297;BME280;20564;42.902;25.336;2023-04-06T10:51:57;96653.13;;;10.34;51.98
34297;BME280;20564;42.902;25.336;2023-04-06T10:54:26;96661.69;;;10.36;51.60
34297;BME280;20564;42.902;25.336;2023-04-06T10:56:54;96668.19;;;10.42;52.17
34297;BME280;20564;42.902;25.336;2023-04-06T10:59:32;96660.69;;;10.55;50.96
34297;BME280;20564;42.902;25.336;2023-04-06T11:02:20;96655.75;;;10.78;51.23
34297;BME280;20564;42.902;25.336;2023-04-06T11:04:57;96657.81;;;10.93;50.17
34297;BME280;20564;42.902;25.336;2023-04-06T11:07:27;96653.88;;;10.97;50.02
34297;BME280;20564;42.902;25.336;2023-04-06T11:09:56;96651.94;;;10.99;50.50
34297;BME280;20564;42.902;25.336;2023-04-06T11:12:44;96650.09;;;10.91;49.30
34297;BME280;20564;42.902;25.336;2023-04-06T11:15:11;96641.63;;;10.79;49.26
34297;BME280;20564;42.902;25.336;2023-04-06T11:17:38;96638.53;;;10.84;50.68
34297;BME280;20564;42.902;25.336;2023-04-06T11:20:11;96637.69;;;10.83;51.22
34297;BME280;20564;42.902;25.336;2023-04-06T11:22:52;96647.09;;;10.86;50.81
34297;BME280;20564;42.902;25.336;2023-04-06T11:25:19;96645.94;;;10.89;49.57
34297;BME280;20564;42.902;25.336;2023-04-06T11:27:50;96632.31;;;10.67;50.38
34297;BME280;20564;42.902;25.336;2023-04-06T11:30:28;96631.63;;;10.57;50.37
34297;BME280;20564;42.902;25.336;2023-04-06T11:33:01;96629.69;;;10.67;50.35
34297;BME280;20564;42.902;25.336;2023-04-06T11:35:33;96625.84;;;10.79;49.98
34297;BME280;20564;42.902;25.336;2023-04-06T11:38:03;96631.50;;;10.93;49.76
34297;BME280;20564;42.902;25.336;2023-04-06T11:40:30;96622.94;;;10.91;49.24
34297;BME280;20564;42.902;25.336;2023-04-06T11:43:03;96637.09;;;10.90;48.50
34297;BME280;20564;42.902;25.336;2023-04-06T11:45:42;96623.84;;;10.81;49.71
34297;BME280;20564;42.902;25.336;2023-04-06T11:48:19;96617.03;;;10.97;48.94
34297;BME280;20564;42.902;25.336;2023-04-06T11:50:47;96632.81;;;10.97;48.89
34297;BME280;20564;42.902;25.336;2023-04-06T11:53:17;96620.66;;;10.96;48.65
34297;BME280;20564;42.902;25.336;2023-04-06T11:55:44;96620.13;;;10.92;49.49
34297;BME280;20564;42.902;25.336;2023-04-06T11:58:13;96617.09;;;11.05;49.13
34297;BME280;20564;42.902;25.336;2023-04-06T12:00:43;96605.50;;;10.90;47.96
34297;BME280;20564;42.902;25.336;2023-04-06T12:03:13;96616.78;;;11.08;50.12
34297;BME280;20564;42.902;25.336;2023-04-06T12:05:41;96610.56;;;11.25;48.33
34297;BME280;20564;42.902;25.336;2023-04-06T12:08:08;96611.97;;;11.46;47.30
34297;BME280;20564;42.902;25.336;2023-04-06T12:10:36;96604.19;;;11.28;47.32
34297;BME280;20564;42.902;25.336;2023-04-06T12:13:06;96608.63;;;11.27;47.36
34297;BME280;20564;42.902;25.336;2023-04-06T12:15:33;96608.38;;;11.04;46.08
34297;BME280;20564;42.902;25.336;2023-04-06T12:18:00;96611.50;;;10.82;47.74
34297;BME280;20564;42.902;25.336;2023-04-06T12:20:27;96611.38;;;10.83;48.85
34297;BME280;20564;42.902;25.336;2023-04-06T12:22:54;96607.44;;;10.88;48.11
34297;BME280;20564;42.902;25.336;2023-04-06T12:25:27;96610.84;;;10.80;47.07
34297;BME280;20564;42.902;25.336;2023-04-06T12:28:03;96616.53;;;10.67;47.45
34297;BME280;20564;42.902;25.336;2023-04-06T12:30:30;96604.66;;;10.63;46.82
34297;BME280;20564;42.902;25.336;2023-04-06T12:32:58;96608.88;;;10.56;48.39
34297;BME280;20564;42.902;25.336;2023-04-06T12:35:36;96613.81;;;10.51;47.30
34297;BME280;20564;42.902;25.336;2023-04-06T12:38:06;96614.44;;;10.53;47.20
34297;BME280;20564;42.902;25.336;2023-04-06T12:40:37;96610.56;;;10.57;48.36
34297;BME280;20564;42.902;25.336;2023-04-06T12:43:04;96623.28;;;10.70;49.44
34297;BME280;20564;42.902;25.336;2023-04-06T12:45:31;96612.34;;;10.56;48.07
34297;BME280;20564;42.902;25.336;2023-04-06T12:48:00;96610.22;;;10.60;49.09
34297;BME280;20564;42.902;25.336;2023-04-06T12:50:27;96604.34;;;10.66;48.03
34297;BME280;20564;42.902;25.336;2023-04-06T12:52:55;96614.78;;;10.50;47.42
34297;BME280;20564;42.902;25.336;2023-04-06T12:55:22;96607.53;;;10.26;47.77
34297;BME280;20564;42.902;25.336;2023-04-06T12:57:48;96601.28;;;10.27;47.46
34297;BME280;20564;42.902;25.336;2023-04-06T13:00:16;96609.44;;;10.24;48.49
34297;BME280;20564;42.902;25.336;2023-04-06T13:02:50;96604.34;;;10.22;47.90
34297;BME280;20564;42.902;25.336;2023-04-06T13:05:17;96596.94;;;10.00;48.04
34297;BME280;20564;42.902;25.336;2023-04-06T13:07:45;96594.34;;;10.08;49.28
34297;BME280;20564;42.902;25.336;2023-04-06T13:10:13;96596.34;;;10.06;48.21
34297;BME280;20564;42.902;25.336;2023-04-06T13:12:40;96591.97;;;9.97;48.38
34297;BME280;20564;42.902;25.336;2023-04-06T13:15:11;96602.47;;;9.97;48.95
34297;BME280;20564;42.902;25.336;2023-04-06T13:17:38;96590.91;;;9.89;47.81
34297;BME280;20564;42.902;25.336;2023-04-06T13:20:14;96592.50;;;9.82;49.08
34297;BME280;20564;42.902;25.336;2023-04-06T13:22:41;96589.78;;;9.74;49.45
34297;BME280;20564;42.902;25.336;2023-04-06T13:25:09;96592.13;;;9.77;49.31
34297;BME280;20564;42.902;25.336;2023-04-06T13:27:36;96590.16;;;9.79;48.44
34297;BME280;20564;42.902;25.336;2023-04-06T13:30:04;96587.16;;;9.74;48.99
34297;BME280;20564;42.902;25.336;2023-04-06T13:32:32;96584.84;;;9.71;49.08
34297;BME280;20564;42.902;25.336;2023-04-06T13:34:59;96589.19;;;9.62;49.84
34297;BME280;20564;42.902;25.336;2023-04-06T13:37:27;96583.69;;;9.56;50.12
34297;BME280;20564;42.902;25.336;2023-04-06T13:39:57;96586.91;;;9.50;50.31
34297;BME280;20564;42.902;25.336;2023-04-06T13:42:24;96595.09;;;9.47;49.75
34297;BME280;20564;42.902;25.336;2023-04-06T13:45:00;96595.44;;;9.34;49.17